Time;durP1;ratioP1;P1;durP2;ratioP2;P2;SDS_P1;SDS_P2;PMS_P1;PMS_P2;Temp;Humidity;BMP_temperature;BMP_pressure;BME280_temperature;BME280_humidity;BME280_pressure;Samples;Min_cycle;Max_cycle;Signal;HPM_P1;HPM_P2
2022/04/06 00:00:59;;;;;;;24.23;11.98;;;;;;;;;;5087986;28;20092;-87
2022/04/06 00:03:25;;;;;;;28.38;11.05;;;;;;;;;;5065429;28;20044;-86
2022/04/06 00:05:51;;;;;;;28.15;11.85;;;;;;;;;;5098419;28;20024;-88
2022/04/06 00:08:18;;;;;;;38.60;14.02;;;;;;;;;;5077288;28;20067;-86
2022/04/06 00:10:44;;;;;;;31.75;13.02;;;;;;;;;;5077697;28;20049;-88
2022/04/06 00:13:10;;;;;;;29.25;11.70;;;;;;;;;;5047682;28;20036;-87
2022/04/06 00:15:36;;;;;;;34.67;12.25;;;;;;;;;;5090239;28;20031;-87
2022/04/06 00:18:02;;;;;;;25.85;10.60;;;;;;;;;;5066320;28;20036;-87
2022/04/06 00:20:28;;;;;;;27.20;10.77;;;;;;;;;;5079218;28;20122;-87
2022/04/06 00:22:54;;;;;;;29.92;9.20;;;;;;;;;;5085304;28;20454;-86
2022/04/06 00:25:20;;;;;;;23.92;10.00;;;;;;;;;;5085599;28;20126;-87
2022/04/06 00:27:46;;;;;;;30.42;11.65;;;;;;;;;;5069369;28;20032;-87
2022/04/06 00:30:12;;;;;;;27.23;9.90;;;;;;;;;;5083486;28;20043;-88
2022/04/06 00:32:38;;;;;;;29.42;10.77;;;;;;;;;;5061351;28;20071;-86
2022/04/06 00:37:49;;;;;;;27.08;11.38;;;;;;;;;;5085375;28;20051;-87
2022/04/06 00:40:16;;;;;;;28.17;10.45;;;;;;;;;;5077646;28;20032;-87
2022/04/06 00:42:42;;;;;;;32.10;11.90;;;;;;;;;;5095251;28;20036;-86
2022/04/06 00:45:08;;;;;;;27.42;11.20;;;;;;;;;;5077774;28;20161;-87
2022/04/06 00:47:36;;;;;;;28.15;12.35;;;;;;;;;;5063266;28;20043;-86
2022/04/06 00:50:02;;;;;;;36.28;13.15;;;;;;;;;;5060348;28;20361;-86
2022/04/06 00:52:28;;;;;;;31.10;12.43;;;;;;;;;;5081877;28;20050;-87
2022/04/06 00:54:54;;;;;;;37.13;12.35;;;;;;;;;;5094999;28;20044;-87
2022/04/06 00:57:20;;;;;;;28.02;10.18;;;;;;;;;;5062994;28;20396;-86
2022/04/06 00:59:48;;;;;;;36.10;12.95;;;;;;;;;;5050710;28;20119;-87
2022/04/06 01:02:14;;;;;;;34.28;13.82;;;;;;;;;;5079202;28;20028;-87
2022/04/06 01:04:40;;;;;;;38.53;14.30;;;;;;;;;;5077595;28;20065;-87
2022/04/06 01:07:06;;;;;;;43.72;15.23;;;;;;;;;;5026873;28;20043;-87
2022/04/06 01:09:32;;;;;;;47.58;15.43;;;;;;;;;;5079316;28;20043;-88
2022/04/06 01:11:59;;;;;;;47.20;16.63;;;;;;;;;;5056289;28;20057;-88
2022/04/06 01:14:25;;;;;;;42.42;15.65;;;;;;;;;;5048350;28;20496;-88
2022/04/06 01:17:00;;;;;;;47.00;18.95;;;;;;;;;;5056223;28;20082;-87
2022/04/06 01:19:30;;;;;;;65.78;23.33;;;;;;;;;;5076362;28;20626;-87
2022/04/06 01:21:56;;;;;;;42.00;18.45;;;;;;;;;;5076618;28;20055;-87
2022/04/06 01:24:23;;;;;;;57.00;20.13;;;;;;;;;;5074104;28;20117;-87
2022/04/06 01:26:49;;;;;;;58.88;22.55;;;;;;;;;;5025616;28;20565;-87
2022/04/06 01:29:15;;;;;;;47.50;18.23;;;;;;;;;;5059493;28;20032;-86
2022/04/06 01:31:41;;;;;;;47.72;20.33;;;;;;;;;;5057628;28;20032;-87
2022/04/06 01:34:07;;;;;;;47.75;19.58;;;;;;;;;;5074254;28;20052;-87
2022/04/06 01:36:33;;;;;;;49.38;18.77;;;;;;;;;;5059899;28;20386;-88
2022/04/06 01:38:59;;;;;;;54.83;21.90;;;;;;;;;;5058340;28;20051;-86
2022/04/06 01:41:34;;;;;;;49.20;20.60;;;;;;;;;;5043767;28;20054;-87
2022/04/06 01:44:03;;;;;;;51.85;20.52;;;;;;;;;;5078536;28;20118;-88
2022/04/06 01:46:30;;;;;;;45.85;19.67;;;;;;;;;;5059590;28;20120;-87
2022/04/06 01:54:51;;;;;;;50.53;22.40;;;;;;;;;;5079219;28;20055;-87
2022/04/06 01:57:21;;;;;;;54.35;19.40;;;;;;;;;;5078290;28;20047;-88
2022/04/06 01:59:47;;;;;;;47.85;18.40;;;;;;;;;;5101123;28;20208;-88
2022/04/06 02:02:14;;;;;;;40.42;18.45;;;;;;;;;;5049495;28;20052;-88
2022/04/06 02:04:41;;;;;;;42.42;17.75;;;;;;;;;;5047520;28;20048;-88
2022/04/06 02:07:09;;;;;;;43.50;18.33;;;;;;;;;;5082219;28;20505;-89
2022/04/06 02:09:42;;;;;;;46.45;18.40;;;;;;;;;;5095404;28;20392;-87
2022/04/06 02:12:22;;;;;;;46.70;19.13;;;;;;;;;;5050173;28;20050;-87
2022/04/06 02:14:51;;;;;;;38.47;17.92;;;;;;;;;;5066305;28;20123;-87
2022/04/06 02:17:27;;;;;;;43.70;17.50;;;;;;;;;;5065115;28;20040;-87
2022/04/06 02:19:54;;;;;;;40.13;16.63;;;;;;;;;;5064591;28;20407;-90
2022/04/06 02:22:20;;;;;;;43.92;17.90;;;;;;;;;;5071374;28;20056;-88
2022/04/06 02:24:46;;;;;;;35.30;15.00;;;;;;;;;;5080525;28;20055;-89
2022/04/06 02:27:16;;;;;;;43.58;18.60;;;;;;;;;;5096191;28;20039;-87
2022/04/06 02:29:42;;;;;;;29.67;14.98;;;;;;;;;;5037833;28;20513;-87
2022/04/06 02:32:09;;;;;;;36.53;16.73;;;;;;;;;;5030121;28;20040;-86
2022/04/06 02:34:35;;;;;;;39.78;14.98;;;;;;;;;;5087882;28;20032;-86
2022/04/06 02:37:01;;;;;;;31.55;14.27;;;;;;;;;;5049642;28;20499;-87
2022/04/06 02:39:27;;;;;;;35.40;14.30;;;;;;;;;;5050525;28;20030;-86
2022/04/06 02:41:53;;;;;;;39.08;14.30;;;;;;;;;;5064315;28;20055;-87
2022/04/06 02:44:19;;;;;;;31.08;12.35;;;;;;;;;;5065254;28;20355;-85
2022/04/06 02:46:46;;;;;;;35.83;14.20;;;;;;;;;;5084356;28;20040;-85
2022/04/06 02:49:12;;;;;;;31.38;13.80;;;;;;;;;;5079206;28;20035;-85
2022/04/06 02:51:39;;;;;;;25.65;10.77;;;;;;;;;;5083947;28;20124;-86
2022/04/06 02:54:08;;;;;;;29.08;10.02;;;;;;;;;;5077636;28;20073;-86
2022/04/06 02:56:37;;;;;;;30.27;11.95;;;;;;;;;;5066351;28;20032;-86
2022/04/06 02:59:03;;;;;;;25.20;10.32;;;;;;;;;;5062279;28;20040;-87
2022/04/06 03:01:32;;;;;;;20.60;9.85;;;;;;;;;;5083141;28;20043;-86
2022/04/06 03:03:58;;;;;;;26.98;10.52;;;;;;;;;;5081665;28;20040;-86
2022/04/06 03:06:24;;;;;;;27.52;10.27;;;;;;;;;;5080671;28;20043;-86
2022/04/06 03:08:50;;;;;;;19.13;8.73;;;;;;;;;;5082560;28;21214;-85
2022/04/06 03:11:16;;;;;;;22.98;9.77;;;;;;;;;;5094113;28;20111;-86
2022/04/06 03:13:50;;;;;;;27.50;9.82;;;;;;;;;;5085748;28;20194;-86
2022/04/06 03:16:16;;;;;;;21.55;9.73;;;;;;;;;;5077116;28;20650;-86
2022/04/06 03:18:42;;;;;;;22.75;8.32;;;;;;;;;;5067273;28;20039;-87
2022/04/06 03:21:08;;;;;;;16.45;7.53;;;;;;;;;;5067564;28;20525;-86
2022/04/06 03:23:34;;;;;;;16.65;6.00;;;;;;;;;;5084372;28;20946;-86
2022/04/06 03:26:00;;;;;;;21.00;7.30;;;;;;;;;;5084815;28;20040;-86
2022/04/06 03:28:26;;;;;;;24.27;6.78;;;;;;;;;;5067798;28;20509;-86
2022/04/06 03:30:53;;;;;;;17.00;5.70;;;;;;;;;;5065837;28;20051;-85
2022/04/06 03:33:19;;;;;;;20.05;7.03;;;;;;;;;;5065791;28;20060;-85
2022/04/06 03:35:51;;;;;;;15.38;5.10;;;;;;;;;;5085047;28;20028;-87
2022/04/06 03:38:24;;;;;;;13.82;4.70;;;;;;;;;;5073662;28;20523;-86
2022/04/06 03:40:50;;;;;;;14.55;5.25;;;;;;;;;;5092708;28;20044;-85
2022/04/06 03:43:16;;;;;;;15.93;4.72;;;;;;;;;;5079525;28;20117;-87
2022/04/06 03:45:42;;;;;;;16.58;5.07;;;;;;;;;;5062610;28;20177;-86
2022/04/06 03:48:09;;;;;;;11.95;5.15;;;;;;;;;;5050416;28;20051;-87
2022/04/06 03:50:35;;;;;;;16.23;7.07;;;;;;;;;;5061902;28;20036;-85
2022/04/06 03:53:01;;;;;;;14.90;5.05;;;;;;;;;;5078038;28;20132;-86
2022/04/06 03:55:27;;;;;;;11.35;4.68;;;;;;;;;;5078495;28;20127;-86
2022/04/06 03:57:53;;;;;;;12.43;5.65;;;;;;;;;;5064959;28;20564;-86
2022/04/06 04:00:19;;;;;;;19.10;5.10;;;;;;;;;;5079703;28;20044;-85
2022/04/06 04:02:48;;;;;;;14.55;5.53;;;;;;;;;;5066448;28;20742;-87
2022/04/06 04:05:15;;;;;;;12.02;4.25;;;;;;;;;;5081389;28;20035;-86
2022/04/06 04:07:56;;;;;;;12.35;4.72;;;;;;;;;;5062095;28;20718;-86
2022/04/06 04:10:25;;;;;;;11.93;5.85;;;;;;;;;;5063618;28;20047;-86
2022/04/06 04:12:58;;;;;;;11.02;4.65;;;;;;;;;;5063995;28;20044;-86
2022/04/06 04:15:24;;;;;;;12.63;5.22;;;;;;;;;;5063624;28;20103;-87
2022/04/06 04:17:50;;;;;;;11.77;5.20;;;;;;;;;;5059497;28;20124;-86
2022/04/06 04:20:25;;;;;;;22.70;5.53;;;;;;;;;;5064607;28;20040;-86
2022/04/06 04:22:51;;;;;;;15.90;4.95;;;;;;;;;;5064462;28;20048;-86
2022/04/06 04:25:21;;;;;;;13.77;5.22;;;;;;;;;;5067806;28;20075;-86
2022/04/06 04:27:53;;;;;;;25.52;5.75;;;;;;;;;;5061925;28;20048;-86
2022/04/06 04:30:21;;;;;;;9.90;5.18;;;;;;;;;;5077508;28;20079;-86
2022/04/06 04:32:48;;;;;;;16.92;6.38;;;;;;;;;;5098703;28;20411;-85
2022/04/06 04:35:17;;;;;;;19.23;5.68;;;;;;;;;;5084491;28;20044;-86
2022/04/06 04:37:55;;;;;;;16.52;5.82;;;;;;;;;;5082748;28;20035;-86
2022/04/06 04:40:21;;;;;;;16.83;6.70;;;;;;;;;;5081951;28;20109;-86
2022/04/06 04:42:48;;;;;;;19.65;7.75;;;;;;;;;;5048958;28;20044;-85
2022/04/06 04:45:14;;;;;;;23.00;7.80;;;;;;;;;;5035940;28;20036;-86
2022/04/06 04:47:40;;;;;;;21.00;7.18;;;;;;;;;;5093799;28;20717;-87
2022/04/06 04:50:07;;;;;;;20.48;6.88;;;;;;;;;;5083760;28;20047;-86
2022/04/06 04:52:33;;;;;;;21.58;8.55;;;;;;;;;;5064721;28;20098;-85
2022/04/06 04:54:59;;;;;;;20.10;8.52;;;;;;;;;;5062975;28;20442;-85
2022/04/06 04:57:25;;;;;;;19.52;8.30;;;;;;;;;;5082172;28;20100;-85
2022/04/06 04:59:52;;;;;;;28.02;8.85;;;;;;;;;;5082417;28;20074;-86
2022/04/06 05:02:19;;;;;;;23.58;8.65;;;;;;;;;;5070143;28;20151;-88
2022/04/06 05:04:45;;;;;;;17.73;7.57;;;;;;;;;;5078388;28;20146;-87
2022/04/06 05:07:14;;;;;;;32.13;9.77;;;;;;;;;;5047573;28;20048;-88
2022/04/06 05:09:41;;;;;;;23.33;9.35;;;;;;;;;;5098847;28;20509;-87
2022/04/06 05:12:10;;;;;;;24.10;10.15;;;;;;;;;;5072944;28;20047;-87
2022/04/06 05:14:42;;;;;;;23.13;9.05;;;;;;;;;;5091009;28;20035;-87
2022/04/06 05:17:14;;;;;;;18.05;9.07;;;;;;;;;;5037258;28;20531;-88
2022/04/06 05:19:47;;;;;;;14.32;6.82;;;;;;;;;;5063035;28;20032;-87
2022/04/06 05:22:19;;;;;;;23.30;9.88;;;;;;;;;;5062753;28;20106;-87
2022/04/06 05:25:20;;;;;;;28.80;9.85;;;;;;;;;;5035388;28;20056;-88
2022/04/06 05:28:02;;;;;;;36.17;10.48;;;;;;;;;;5075817;28;20068;-87
2022/04/06 05:30:30;;;;;;;21.55;8.90;;;;;;;;;;5064414;28;20118;-88
2022/04/06 05:33:00;;;;;;;27.58;11.07;;;;;;;;;;5079013;28;20044;-88
2022/04/06 05:35:44;;;;;;;26.27;10.50;;;;;;;;;;5045870;28;20044;-88
2022/04/06 05:38:16;;;;;;;;;;;;;;;;;;5060653;28;20055;-87
2022/04/06 05:40:42;;;;;;;22.50;10.85;;;;;;;;;;5042940;28;20360;-88
2022/04/06 05:43:20;;;;;;;36.53;11.70;;;;;;;;;;5025481;28;20041;-88
2022/04/06 05:45:47;;;;;;;29.33;12.27;;;;;;;;;;5038696;28;20048;-89
2022/04/06 05:48:13;;;;;;;31.02;10.98;;;;;;;;;;5044159;28;20056;-88
2022/04/06 05:50:39;;;;;;;24.17;10.70;;;;;;;;;;5065941;28;20080;-89
2022/04/06 05:53:05;;;;;;;25.10;8.25;;;;;;;;;;5029176;28;20041;-88
2022/04/06 05:55:38;;;;;;;34.47;12.95;;;;;;;;;;5065782;28;20441;-88
2022/04/06 05:58:10;;;;;;;25.80;10.13;;;;;;;;;;5063322;28;20171;-89
2022/04/06 06:00:39;;;;;;;24.65;11.45;;;;;;;;;;5074306;28;20044;-89
2022/04/06 06:03:05;;;;;;;28.15;10.65;;;;;;;;;;5064726;28;20105;-88
2022/04/06 06:05:34;;;;;;;33.13;11.90;;;;;;;;;;5067993;28;20090;-88
2022/04/06 06:08:00;;;;;;;26.33;10.00;;;;;;;;;;5050293;28;20059;-87
2022/04/06 06:10:27;;;;;;;27.63;8.77;;;;;;;;;;5038141;28;20439;-88
2022/04/06 06:12:56;;;;;;;32.80;10.75;;;;;;;;;;5063520;28;20079;-88
2022/04/06 06:15:22;;;;;;;28.25;11.75;;;;;;;;;;5047025;28;20588;-88
2022/04/06 06:17:48;;;;;;;34.42;13.18;;;;;;;;;;5046050;28;20036;-89
2022/04/06 06:20:14;;;;;;;24.23;9.05;;;;;;;;;;5030303;28;20055;-89
2022/04/06 06:22:40;;;;;;;28.70;11.13;;;;;;;;;;5040002;28;20044;-89
2022/04/06 06:25:07;;;;;;;33.83;13.38;;;;;;;;;;5059137;28;20048;-89
2022/04/06 06:27:43;;;;;;;32.75;14.93;;;;;;;;;;5046521;28;20193;-89
2022/04/06 06:30:12;;;;;;;34.92;14.70;;;;;;;;;;5042150;28;20938;-89
2022/04/06 06:32:38;;;;;;;34.58;14.32;;;;;;;;;;5067492;28;20451;-90
2022/04/06 06:35:04;;;;;;;21.88;11.60;;;;;;;;;;5033873;28;20063;-89
2022/04/06 06:37:30;;;;;;;26.10;10.82;;;;;;;;;;5056792;28;20033;-89
2022/04/06 06:39:56;;;;;;;26.23;12.32;;;;;;;;;;5068751;28;20036;-90
2022/04/06 06:42:22;;;;;;;30.45;14.45;;;;;;;;;;5057598;28;20051;-90
2022/04/06 06:44:48;;;;;;;30.13;13.80;;;;;;;;;;5050264;28;20047;-88
2022/04/06 06:47:14;;;;;;;22.92;9.90;;;;;;;;;;5097327;28;20036;-89
2022/04/06 06:49:46;;;;;;;30.55;14.00;;;;;;;;;;5100046;28;20047;-89
2022/04/06 06:52:12;;;;;;;25.00;12.75;;;;;;;;;;5063516;28;20127;-89
2022/04/06 06:54:39;;;;;;;22.98;10.05;;;;;;;;;;5084465;28;20040;-89
2022/04/06 06:57:05;;;;;;;25.02;10.48;;;;;;;;;;5059577;28;20452;-89
2022/04/06 06:59:31;;;;;;;18.67;8.75;;;;;;;;;;5081261;28;20032;-90
2022/04/06 07:01:57;;;;;;;15.68;8.85;;;;;;;;;;5083043;28;20040;-93
2022/04/06 07:04:29;;;;;;;17.33;8.38;;;;;;;;;;5067213;28;20082;-92
2022/04/06 07:06:55;;;;;;;19.58;9.65;;;;;;;;;;5069031;28;20044;-91
2022/04/06 07:09:21;;;;;;;21.88;9.50;;;;;;;;;;5061641;28;20032;-91
2022/04/06 07:11:53;;;;;;;17.85;8.95;;;;;;;;;;5085373;28;20044;-92
2022/04/06 07:14:26;;;;;;;17.15;9.40;;;;;;;;;;5067587;28;20048;-91
2022/04/06 07:16:53;;;;;;;23.25;9.18;;;;;;;;;;5086169;28;20036;-90
2022/04/06 07:19:20;;;;;;;27.10;10.15;;;;;;;;;;5071212;28;20069;-89
2022/04/06 07:21:47;;;;;;;20.83;9.88;;;;;;;;;;5100252;28;20056;-88
2022/04/06 07:24:17;;;;;;;14.32;7.85;;;;;;;;;;5065379;28;20517;-89
2022/04/06 07:26:43;;;;;;;18.45;10.13;;;;;;;;;;5083780;28;20043;-89
2022/04/06 07:29:15;;;;;;;15.82;8.07;;;;;;;;;;5063234;28;20051;-88
2022/04/06 07:31:44;;;;;;;14.93;8.18;;;;;;;;;;5092218;28;20067;-88
2022/04/06 07:34:10;;;;;;;22.02;8.75;;;;;;;;;;5045294;28;20102;-88
2022/04/06 07:36:37;;;;;;;12.18;5.85;;;;;;;;;;5082152;28;20040;-88
2022/04/06 07:39:06;;;;;;;14.95;7.05;;;;;;;;;;5099766;28;20040;-89
2022/04/06 07:41:33;;;;;;;17.80;8.05;;;;;;;;;;5079019;28;20033;-89
2022/04/06 07:43:59;;;;;;;20.10;7.70;;;;;;;;;;5060995;28;20045;-89
2022/04/06 07:46:25;;;;;;;19.13;7.60;;;;;;;;;;5066175;28;20055;-90
2022/04/06 07:48:51;;;;;;;19.25;8.35;;;;;;;;;;5082332;28;20043;-90
2022/04/06 07:51:30;;;;;;;19.63;7.57;;;;;;;;;;5078292;28;20503;-89
2022/04/06 07:53:56;;;;;;;15.80;7.18;;;;;;;;;;5075373;28;20082;-90
2022/04/06 07:56:22;;;;;;;13.88;5.68;;;;;;;;;;5069782;28;20039;-89
2022/04/06 07:58:48;;;;;;;12.55;6.13;;;;;;;;;;5078340;28;20048;-88
2022/04/06 08:01:14;;;;;;;10.55;5.38;;;;;;;;;;5072367;28;20135;-89
2022/04/06 08:03:40;;;;;;;13.48;5.80;;;;;;;;;;5082883;28;20383;-89
2022/04/06 08:06:07;;;;;;;17.30;5.65;;;;;;;;;;5070836;28;20418;-90
2022/04/06 08:08:33;;;;;;;15.43;5.93;;;;;;;;;;5062442;28;20072;-89
2022/04/06 08:10:59;;;;;;;14.48;7.15;;;;;;;;;;5084927;28;20269;-88
2022/04/06 08:13:25;;;;;;;9.95;5.78;;;;;;;;;;5048796;28;20235;-87
2022/04/06 08:15:52;;;;;;;11.18;5.38;;;;;;;;;;5082555;28;20118;-87
2022/04/06 08:18:18;;;;;;;12.02;5.43;;;;;;;;;;5066129;28;20040;-89
2022/04/06 08:20:44;;;;;;;15.43;6.50;;;;;;;;;;5084683;28;20080;-88
2022/04/06 08:26:27;;;;;;;13.65;5.82;;;;;;;;;;5085384;28;20659;-89
2022/04/06 08:28:54;;;;;;;13.30;6.65;;;;;;;;;;5085798;28;20048;-88
2022/04/06 08:31:20;;;;;;;12.75;5.72;;;;;;;;;;5068724;28;20048;-88
2022/04/06 08:33:46;;;;;;;12.32;6.40;;;;;;;;;;5105535;28;20044;-87
2022/04/06 08:36:13;;;;;;;17.13;8.13;;;;;;;;;;5074369;28;20044;-88
2022/04/06 08:38:39;;;;;;;14.23;5.75;;;;;;;;;;5051240;28;20752;-88
2022/04/06 08:41:11;;;;;;;17.92;8.10;;;;;;;;;;5050267;28;20047;-87
2022/04/06 08:46:31;;;;;;;25.25;8.50;;;;;;;;;;5086374;28;20048;-86
2022/04/06 08:48:57;;;;;;;20.17;7.60;;;;;;;;;;5068018;28;20815;-87
2022/04/06 08:51:24;;;;;;;22.27;10.13;;;;;;;;;;5051244;28;20038;-89
2022/04/06 08:53:50;;;;;;;17.20;7.60;;;;;;;;;;5083333;28;20040;-89
2022/04/06 08:56:28;;;;;;;17.42;7.68;;;;;;;;;;5064534;28;20032;-88
2022/04/06 09:01:43;;;;;;;12.48;5.60;;;;;;;;;;5066630;28;20408;-87
2022/04/06 09:04:09;;;;;;;18.45;7.07;;;;;;;;;;5050257;28;20040;-87
2022/04/06 09:06:45;;;;;;;13.07;6.45;;;;;;;;;;5082875;28;20102;-88
2022/04/06 09:09:11;;;;;;;24.30;6.68;;;;;;;;;;5065955;28;20404;-88
2022/04/06 09:11:42;;;;;;;20.52;6.78;;;;;;;;;;5048705;28;20050;-87
2022/04/06 09:14:08;;;;;;;13.15;6.53;;;;;;;;;;5064263;28;20055;-87
2022/04/06 09:16:34;;;;;;;16.08;6.88;;;;;;;;;;5084179;28;20055;-87
2022/04/06 09:19:16;;;;;;;17.98;6.10;;;;;;;;;;5047137;28;20044;-87
2022/04/06 09:21:43;;;;;;;16.42;6.05;;;;;;;;;;5066607;28;20051;-87
2022/04/06 09:24:15;;;;;;;14.15;5.97;;;;;;;;;;5081280;28;20066;-86
2022/04/06 09:26:42;;;;;;;25.92;6.40;;;;;;;;;;5065640;28;20558;-87
2022/04/06 09:29:11;;;;;;;12.23;4.38;;;;;;;;;;5048077;28;20460;-88
2022/04/06 09:31:39;;;;;;;18.10;5.15;;;;;;;;;;5083782;28;20043;-87
2022/04/06 09:34:05;;;;;;;14.90;4.95;;;;;;;;;;5066543;28;20395;-87
2022/04/06 09:36:39;;;;;;;13.70;5.53;;;;;;;;;;5061778;28;20051;-87
2022/04/06 09:39:06;;;;;;;22.00;5.55;;;;;;;;;;5061142;28;20649;-86
2022/04/06 09:41:33;;;;;;;14.57;5.47;;;;;;;;;;5064500;28;20039;-86
2022/04/06 09:47:38;;;;;;;18.15;6.20;;;;;;;;;;5063030;28;20499;-86
2022/04/06 09:50:14;;;;;;;17.20;5.47;;;;;;;;;;5098110;28;20552;-86
2022/04/06 09:52:41;;;;;;;10.82;4.97;;;;;;;;;;5077130;28;20440;-86
2022/04/06 09:55:09;;;;;;;13.98;5.53;;;;;;;;;;5090314;28;20391;-87
2022/04/06 09:57:45;;;;;;;11.05;5.40;;;;;;;;;;5103292;28;20470;-87
2022/04/06 10:00:16;;;;;;;17.00;6.00;;;;;;;;;;5098576;28;20048;-86
2022/04/06 10:02:42;;;;;;;14.05;5.28;;;;;;;;;;5102706;28;20089;-87
2022/04/06 10:05:11;;;;;;;15.70;5.70;;;;;;;;;;5084767;28;20073;-87
2022/04/06 10:07:37;;;;;;;20.67;5.43;;;;;;;;;;5049270;28;20085;-86
2022/04/06 10:10:03;;;;;;;15.48;6.80;;;;;;;;;;5076201;28;20079;-87
2022/04/06 10:12:29;;;;;;;18.52;5.10;;;;;;;;;;5083903;28;20044;-86
2022/04/06 10:14:57;;;;;;;18.92;6.03;;;;;;;;;;5077239;28;20046;-86
2022/04/06 10:17:23;;;;;;;14.95;6.35;;;;;;;;;;5066405;28;20080;-86
2022/04/06 10:19:53;;;;;;;15.00;5.30;;;;;;;;;;5074817;28;20108;-87
2022/04/06 10:22:26;;;;;;;16.88;6.65;;;;;;;;;;5069127;28;20115;-86
2022/04/06 10:24:52;;;;;;;19.80;5.72;;;;;;;;;;5065789;28;20052;-87
2022/04/06 10:27:21;;;;;;;22.10;6.53;;;;;;;;;;5053917;28;20483;-86
2022/04/06 10:30:06;;;;;;;15.07;4.43;;;;;;;;;;5070833;28;20051;-87
2022/04/06 10:32:34;;;;;;;16.10;5.95;;;;;;;;;;5051047;28;20044;-87
2022/04/06 10:35:38;;;;;;;17.35;5.20;;;;;;;;;;5063792;28;20412;-87
2022/04/06 10:38:04;;;;;;;12.00;4.82;;;;;;;;;;4958552;28;20465;-86
2022/04/06 10:40:43;;;;;;;19.27;6.65;;;;;;;;;;4959183;28;20523;-87
2022/04/06 10:43:27;;;;;;;20.13;4.70;;;;;;;;;;5031083;28;20408;-88
2022/04/06 10:45:55;;;;;;;18.92;5.22;;;;;;;;;;5050250;28;20076;-88
2022/04/06 10:48:22;;;;;;;18.98;5.15;;;;;;;;;;5053489;28;20048;-87
2022/04/06 10:50:51;;;;;;;21.02;6.57;;;;;;;;;;5064797;28;20055;-87
2022/04/06 10:53:20;;;;;;;20.48;5.50;;;;;;;;;;5048232;28;20044;-86
2022/04/06 10:56:03;;;;;;;22.42;5.55;;;;;;;;;;5036975;28;20050;-87
2022/04/06 10:58:54;;;;;;;20.02;5.40;;;;;;;;;;5066109;28;20127;-87
2022/04/06 11:01:26;;;;;;;26.83;7.63;;;;;;;;;;5076823;28;20051;-86
2022/04/06 11:03:59;;;;;;;14.70;6.00;;;;;;;;;;5077355;28;20036;-86
2022/04/06 11:06:52;;;;;;;14.50;4.57;;;;;;;;;;5050383;28;20052;-86
2022/04/06 11:12:21;;;;;;;26.70;7.78;;;;;;;;;;5070319;28;20048;-87
2022/04/06 11:14:48;;;;;;;19.98;7.75;;;;;;;;;;5033592;28;20413;-86
2022/04/06 11:20:13;;;;;;;17.48;7.78;;;;;;;;;;5066140;28;20044;-86
2022/04/06 11:23:00;;;;;;;23.52;8.35;;;;;;;;;;5057856;28;20051;-86
2022/04/06 11:25:30;;;;;;;19.30;6.07;;;;;;;;;;5076744;28;20083;-86
2022/04/06 11:28:06;;;;;;;14.60;6.40;;;;;;;;;;5059199;28;20459;-88
2022/04/06 11:30:34;;;;;;;14.48;6.47;;;;;;;;;;5098911;28;20062;-87
2022/04/06 11:33:16;;;;;;;25.27;7.03;;;;;;;;;;5038123;28;20041;-87
2022/04/06 11:35:51;;;;;;;17.08;5.53;;;;;;;;;;5037077;28;20064;-87
2022/04/06 11:38:36;;;;;;;27.45;6.68;;;;;;;;;;5038501;28;20140;-89
2022/04/06 11:41:15;;;;;;;20.88;6.68;;;;;;;;;;5045580;28;20080;-88
2022/04/06 11:43:44;;;;;;;20.30;6.15;;;;;;;;;;5034833;28;20130;-87
2022/04/06 11:46:10;;;;;;;17.63;6.15;;;;;;;;;;5042633;28;20159;-87
2022/04/06 11:48:46;;;;;;;19.10;6.75;;;;;;;;;;5051731;28;20053;-87
2022/04/06 11:51:16;;;;;;;18.80;5.53;;;;;;;;;;5036143;28;20078;-91
2022/04/06 11:54:00;;;;;;;22.10;7.13;;;;;;;;;;5047903;28;20140;-87
2022/04/06 11:56:26;;;;;;;14.32;5.10;;;;;;;;;;5056476;28;21036;-86
2022/04/06 11:58:57;;;;;;;14.32;4.68;;;;;;;;;;5041782;28;20629;-88
2022/04/06 12:01:28;;;;;;;18.83;6.43;;;;;;;;;;5028696;28;20165;-86
2022/04/06 12:03:59;;;;;;;21.20;6.10;;;;;;;;;;5062150;28;20051;-84
2022/04/06 12:06:36;;;;;;;13.88;4.45;;;;;;;;;;5075796;28;20123;-87
2022/04/06 12:09:02;;;;;;;25.15;5.80;;;;;;;;;;5101592;28;20055;-85
2022/04/06 12:11:28;;;;;;;20.40;4.72;;;;;;;;;;5099974;28;20122;-86
2022/04/06 12:13:56;;;;;;;15.45;4.55;;;;;;;;;;5062273;28;20039;-87
2022/04/06 12:16:23;;;;;;;18.10;4.85;;;;;;;;;;5107446;28;20525;-84
2022/04/06 12:18:51;;;;;;;14.07;3.88;;;;;;;;;;5093914;28;20040;-86
2022/04/06 12:21:24;;;;;;;20.83;3.92;;;;;;;;;;5067034;28;20118;-87
2022/04/06 12:23:51;;;;;;;10.15;3.30;;;;;;;;;;5093055;28;20158;-88
2022/04/06 12:26:18;;;;;;;18.73;4.30;;;;;;;;;;5085910;28;20032;-87
2022/04/06 12:28:51;;;;;;;13.23;3.15;;;;;;;;;;5096233;28;20547;-88
2022/04/06 12:31:31;;;;;;;13.27;4.13;;;;;;;;;;5066896;28;20051;-86
2022/04/06 12:33:57;;;;;;;14.05;3.55;;;;;;;;;;5085660;28;20039;-86
2022/04/06 12:36:27;;;;;;;16.77;3.65;;;;;;;;;;5085673;28;20113;-87
2022/04/06 12:38:57;;;;;;;11.70;3.08;;;;;;;;;;5050840;28;20040;-86
2022/04/06 12:41:25;;;;;;;15.27;4.10;;;;;;;;;;5084513;28;20085;-87
2022/04/06 12:43:54;;;;;;;11.90;3.20;;;;;;;;;;5067327;28;20139;-88
2022/04/06 12:46:43;;;;;;;12.38;3.08;;;;;;;;;;5068701;28;20441;-87
2022/04/06 12:49:19;;;;;;;11.20;3.17;;;;;;;;;;5050032;28;20051;-86
2022/04/06 12:51:49;;;;;;;14.20;3.17;;;;;;;;;;5075529;28;21458;-85
2022/04/06 12:54:17;;;;;;;9.30;2.75;;;;;;;;;;5080404;28;20537;-87
2022/04/06 12:57:02;;;;;;;16.45;3.40;;;;;;;;;;5090545;28;20070;-86
2022/04/06 12:59:56;;;;;;;18.88;3.30;;;;;;;;;;5090058;28;20503;-86
2022/04/06 13:02:28;;;;;;;11.60;2.90;;;;;;;;;;5091717;28;20800;-85
2022/04/06 13:04:59;;;;;;;14.35;3.28;;;;;;;;;;5098998;28;20054;-85
2022/04/06 13:07:26;;;;;;;15.55;3.40;;;;;;;;;;5092918;28;20491;-87
2022/04/06 13:09:57;;;;;;;14.77;3.03;;;;;;;;;;5058402;28;20460;-86
2022/04/06 13:12:43;;;;;;;16.73;3.20;;;;;;;;;;5075891;28;20650;-86
2022/04/06 13:15:10;;;;;;;19.80;4.10;;;;;;;;;;5085271;28;20048;-87
2022/04/06 13:17:36;;;;;;;14.75;2.95;;;;;;;;;;5093972;28;20046;-85
2022/04/06 13:20:07;;;;;;;11.30;3.42;;;;;;;;;;5075158;28;20035;-85
2022/04/06 13:22:34;;;;;;;15.40;3.42;;;;;;;;;;5072280;28;20083;-85
2022/04/06 13:25:00;;;;;;;14.48;3.22;;;;;;;;;;5100623;28;20051;-85
2022/04/06 13:27:26;;;;;;;16.08;4.38;;;;;;;;;;5098107;28;20103;-85
2022/04/06 13:29:52;;;;;;;12.20;2.47;;;;;;;;;;5087828;28;20047;-87
2022/04/06 13:32:21;;;;;;;15.63;3.25;;;;;;;;;;5096967;28;20028;-86
2022/04/06 13:34:47;;;;;;;12.88;2.65;;;;;;;;;;5084315;28;20079;-86
2022/04/06 13:37:18;;;;;;;15.63;3.45;;;;;;;;;;5068404;28;20036;-86
2022/04/06 13:39:48;;;;;;;14.27;2.90;;;;;;;;;;5087725;28;20040;-85
2022/04/06 13:42:17;;;;;;;17.02;3.53;;;;;;;;;;5092341;28;20084;-84
2022/04/06 13:44:43;;;;;;;13.77;3.00;;;;;;;;;;5092441;28;20048;-85
2022/04/06 13:47:13;;;;;;;13.45;3.20;;;;;;;;;;5105031;28;20079;-85
2022/04/06 13:49:39;;;;;;;14.32;3.15;;;;;;;;;;5087860;28;20047;-85
2022/04/06 13:52:05;;;;;;;11.88;2.97;;;;;;;;;;5048724;28;20051;-84
2022/04/06 13:54:32;;;;;;;13.50;2.90;;;;;;;;;;5052290;28;20040;-86
2022/04/06 13:56:59;;;;;;;13.10;2.92;;;;;;;;;;5068585;28;20044;-86
2022/04/06 13:59:28;;;;;;;15.85;3.20;;;;;;;;;;5086767;28;20056;-85
2022/04/06 14:01:55;;;;;;;11.15;2.55;;;;;;;;;;5052631;28;20535;-85
2022/04/06 14:04:27;;;;;;;11.00;2.67;;;;;;;;;;5088015;28;20032;-85
2022/04/06 14:06:53;;;;;;;14.45;2.40;;;;;;;;;;5086948;28;20474;-85
2022/04/06 14:09:21;;;;;;;9.18;2.45;;;;;;;;;;5084929;28;20048;-86
2022/04/06 14:11:49;;;;;;;10.32;2.67;;;;;;;;;;5102087;28;20502;-84
2022/04/06 14:14:15;;;;;;;9.23;2.75;;;;;;;;;;5062242;28;20097;-85
2022/04/06 14:16:42;;;;;;;13.45;3.40;;;;;;;;;;5078549;28;20618;-84
2022/04/06 14:19:08;;;;;;;15.57;2.70;;;;;;;;;;5096271;28;20035;-85
2022/04/06 14:21:35;;;;;;;8.13;2.17;;;;;;;;;;5096472;28;20036;-86
2022/04/06 14:24:02;;;;;;;12.93;2.92;;;;;;;;;;5116198;27;20047;-88
2022/04/06 14:26:28;;;;;;;13.98;3.25;;;;;;;;;;5067878;28;20047;-86
2022/04/06 14:29:13;;;;;;;9.68;2.65;;;;;;;;;;5087048;28;20039;-87
2022/04/06 14:31:48;;;;;;;4.60;1.42;;;;;;;;;;5059613;28;20044;-88
2022/04/06 14:34:14;;;;;;;8.48;2.15;;;;;;;;;;5086838;28;20118;-87
2022/04/06 14:36:41;;;;;;;6.90;1.67;;;;;;;;;;5070349;28;20044;-86
2022/04/06 14:39:07;;;;;;;7.88;1.73;;;;;;;;;;5083043;28;20191;-86
2022/04/06 14:41:34;;;;;;;9.25;2.45;;;;;;;;;;5088860;28;20048;-86
2022/04/06 14:44:00;;;;;;;5.88;1.95;;;;;;;;;;5063321;28;20162;-86
2022/04/06 14:46:26;;;;;;;6.18;1.60;;;;;;;;;;5079780;28;20067;-86
2022/04/06 14:48:52;;;;;;;4.00;1.80;;;;;;;;;;5049472;28;20044;-86
2022/04/06 14:51:18;;;;;;;5.07;2.05;;;;;;;;;;5064536;28;20106;-86
2022/04/06 14:53:44;;;;;;;8.32;2.28;;;;;;;;;;5081978;28;20040;-87
2022/04/06 14:56:13;;;;;;;6.53;1.83;;;;;;;;;;5082058;28;20028;-86
2022/04/06 14:58:39;;;;;;;3.25;1.33;;;;;;;;;;5084290;28;20407;-86
2022/04/06 15:01:07;;;;;;;4.53;1.40;;;;;;;;;;5084274;28;20048;-86
2022/04/06 15:03:35;;;;;;;4.63;1.40;;;;;;;;;;5067230;28;20048;-85